Terminal Aerodrome Forecast
Issued by NWS Salt Lake City, UT

Home | Current Version | Previous Version | Text Only | Print | Product List | Glossary On
Versions: 1 2 3 4 5 6 7 8 9 10 11 12 13 14 15 16 17 18 19 20 21
000
FTUS45 KSLC 270107 AAB
TAFCDC
TAF AMD
KCDC 270107Z 2701/2724 20013G22KT P6SM SKC
     FM270800 20013G20KT P6SM BKN100
     FM271200 21020G28KT P6SM -SHSN SCT030 BKN050
     FM271700 20024G32KT 5SM -SN BR BKN035 OVC050=

USA.gov is the U.S. government's official web portal to all federal, state and local government web resources and services.